createdAt,value
2019-01-13T00:00:42.105Z,6.73
2019-01-13T00:03:11.770Z,7.80
2019-01-13T00:05:41.112Z,7.80
2019-01-13T00:08:10.746Z,7.87
2019-01-13T00:10:41.376Z,10.63
2019-01-13T00:13:11.973Z,8.27
2019-01-13T00:15:41.553Z,7.67
2019-01-13T00:18:10.878Z,7.57
2019-01-13T00:20:40.455Z,7.93
2019-01-13T00:23:09.475Z,9.47
2019-01-13T00:25:38.469Z,7.13
2019-01-13T00:28:07.543Z,8.30
2019-01-13T00:30:36.934Z,7.53
2019-01-13T00:33:05.951Z,8.60
2019-01-13T00:35:35.516Z,9.67
2019-01-13T00:38:05.580Z,7.77
2019-01-13T00:40:34.958Z,7.57
2019-01-13T00:43:04.607Z,6.60
2019-01-13T00:45:33.571Z,7.80
2019-01-13T00:48:03.134Z,8.43
2019-01-13T00:50:32.466Z,9.03
2019-01-13T00:53:01.851Z,9.43
2019-01-13T00:55:31.423Z,9.77
2019-01-13T00:58:00.716Z,9.63
2019-01-13T01:00:30.063Z,6.97
2019-01-13T01:02:59.363Z,8.80
2019-01-13T01:05:28.773Z,8.30
2019-01-13T01:07:57.806Z,8.07
2019-01-13T01:10:26.872Z,8.27
2019-01-13T01:12:57.008Z,7.53
2019-01-13T01:15:26.864Z,9.27
2019-01-13T01:17:55.824Z,8.93
2019-01-13T01:20:25.814Z,7.83
2019-01-13T01:22:55.555Z,8.63
2019-01-13T01:25:25.462Z,6.60
2019-01-13T01:27:54.625Z,7.00
2019-01-13T01:30:23.786Z,10.80
2019-01-13T01:32:53.276Z,6.40
2019-01-13T01:35:22.956Z,5.33
2019-01-13T01:37:52.783Z,6.10
2019-01-13T01:40:23.536Z,7.60
2019-01-13T01:43:14.665Z,4.27
2019-01-13T01:45:44.543Z,3.97
2019-01-13T01:48:37.809Z,5.37
2019-01-13T01:51:08.529Z,4.20
2019-01-13T01:53:40.217Z,4.90
2019-01-13T01:56:10.500Z,5.70
2019-01-13T01:58:39.677Z,6.63
2019-01-13T02:01:08.843Z,5.47
2019-01-13T02:03:38.886Z,6.10
2019-01-13T02:06:13.386Z,5.70
2019-01-13T02:08:43.973Z,5.03
2019-01-13T02:11:14.921Z,8.20
2019-01-13T02:13:55.726Z,4.63
2019-01-13T02:16:30.100Z,6.57
2019-01-13T02:19:00.800Z,5.93
2019-01-13T02:21:50.163Z,8.73
2019-01-13T02:24:59.334Z,7.93
2019-01-13T02:28:03.583Z,7.67
2019-01-13T02:34:05.759Z,8.43
2019-01-13T02:36:52.567Z,11.20
2019-01-13T02:39:20.797Z,10.73
2019-01-13T02:42:49.686Z,11.03
2019-01-13T02:49:53.671Z,12.90
2019-01-13T02:53:26.961Z,14.40
2019-01-13T03:00:30.887Z,19.77
2019-01-13T03:03:13.510Z,15.63
2019-01-13T03:05:47.913Z,19.87
2019-01-13T03:08:22.198Z,18.33
2019-01-13T03:10:48.608Z,21.73
2019-01-13T03:13:17.807Z,19.33
2019-01-13T03:15:47.441Z,18.77
2019-01-13T03:18:16.695Z,22.60
2019-01-13T03:20:46.190Z,18.47
2019-01-13T03:23:20.251Z,20.47
2019-01-13T03:25:49.330Z,17.90
2019-01-13T03:28:18.787Z,19.63
2019-01-13T03:30:48.238Z,17.93
2019-01-13T03:33:17.612Z,18.67
2019-01-13T03:35:46.666Z,19.33
2019-01-13T03:38:16.004Z,18.50
2019-01-13T03:41:07.769Z,18.23
2019-01-13T03:43:37.232Z,13.53
2019-01-13T03:46:06.349Z,15.27
2019-01-13T03:48:35.649Z,13.80
2019-01-13T03:51:16.491Z,16.00
2019-01-13T03:53:46.272Z,12.77
2019-01-13T03:56:15.900Z,15.07
2019-01-13T03:58:50.714Z,13.20
2019-01-13T04:01:24.371Z,12.20
2019-01-13T04:03:55.055Z,13.47
2019-01-13T04:06:40.472Z,13.50
2019-01-13T04:09:12.624Z,12.63
2019-01-13T04:11:41.700Z,12.53
2019-01-13T04:14:12.372Z,13.37
2019-01-13T04:16:42.382Z,12.43
2019-01-13T04:19:11.635Z,11.50
2019-01-13T04:21:41.110Z,14.40
2019-01-13T04:24:10.010Z,12.50
2019-01-13T04:26:39.206Z,10.40
2019-01-13T04:29:08.493Z,15.37
2019-01-13T04:31:38.054Z,15.03
2019-01-13T04:34:07.636Z,13.10
2019-01-13T04:36:36.672Z,13.33
2019-01-13T04:39:07.224Z,16.20
2019-01-13T04:41:36.726Z,15.47
2019-01-13T04:44:05.992Z,13.77
2019-01-13T04:46:35.510Z,16.73
2019-01-13T04:49:05.092Z,15.40
2019-01-13T04:51:34.034Z,14.47
2019-01-13T04:54:06.729Z,15.30
2019-01-13T04:56:36.511Z,19.07
2019-01-13T04:59:06.479Z,16.33
2019-01-13T05:01:36.943Z,16.87
2019-01-13T05:04:06.403Z,19.53
2019-01-13T05:06:35.786Z,19.30
2019-01-13T05:09:08.032Z,16.20
2019-01-13T05:11:37.496Z,22.80
2019-01-13T05:14:07.010Z,22.13
2019-01-13T05:16:36.218Z,18.37
2019-01-13T05:19:05.536Z,19.83
2019-01-13T05:21:34.851Z,20.27
2019-01-13T05:24:04.435Z,23.07
2019-01-13T05:26:33.753Z,20.60
2019-01-13T05:29:03.033Z,18.60
2019-01-13T05:31:32.415Z,19.87
2019-01-13T05:34:01.463Z,22.80
2019-01-13T05:36:33.827Z,21.50
2019-01-13T05:39:10.476Z,19.10
2019-01-13T05:41:40.029Z,20.17
2019-01-13T05:44:09.369Z,17.73
2019-01-13T05:46:46.246Z,20.17
2019-01-13T05:49:12.883Z,21.47
2019-01-13T05:51:44.396Z,22.50
2019-01-13T05:54:13.471Z,21.83
2019-01-13T05:56:42.397Z,24.70
2019-01-13T05:59:11.351Z,25.13
2019-01-13T06:01:48.970Z,26.23
2019-01-13T06:04:13.551Z,23.97
2019-01-13T06:06:46.756Z,25.03
2019-01-13T06:09:15.889Z,24.53
2019-01-13T06:11:51.310Z,25.27
2019-01-13T06:14:20.256Z,21.73
2019-01-13T06:16:49.545Z,24.83
2019-01-13T06:19:18.665Z,27.27
2019-01-13T06:21:47.540Z,22.80
2019-01-13T06:24:16.430Z,23.97
2019-01-13T06:26:45.358Z,24.20
2019-01-13T06:29:14.031Z,25.07
2019-01-13T06:31:42.927Z,26.07
2019-01-13T06:34:11.838Z,23.87
2019-01-13T06:36:40.787Z,28.10
2019-01-13T06:39:09.948Z,24.93
2019-01-13T06:41:39.063Z,24.43
2019-01-13T06:44:07.979Z,26.17
2019-01-13T06:46:37.085Z,28.07
2019-01-13T06:49:05.731Z,25.27
2019-01-13T06:51:34.909Z,30.50
2019-01-13T06:54:03.947Z,29.27
2019-01-13T06:56:33.159Z,32.17
2019-01-13T06:59:01.552Z,26.17
2019-01-13T07:01:30.937Z,29.43
2019-01-13T07:03:59.825Z,27.00
2019-01-13T07:06:29.061Z,27.20
2019-01-13T07:08:57.914Z,25.80
2019-01-13T07:11:26.571Z,29.17
2019-01-13T07:13:55.868Z,28.77
2019-01-13T07:16:24.676Z,28.33
2019-01-13T07:18:53.722Z,26.97
2019-01-13T07:21:22.648Z,26.53
2019-01-13T07:24:05.704Z,24.10
2019-01-13T07:26:34.692Z,30.10
2019-01-13T07:29:03.895Z,25.17
2019-01-13T07:31:32.999Z,29.90
2019-01-13T07:34:02.123Z,24.37
2019-01-13T07:36:30.647Z,28.50
2019-01-13T07:38:59.617Z,30.73
2019-01-13T07:41:29.055Z,27.17
2019-01-13T07:43:58.612Z,28.70
2019-01-13T07:46:27.527Z,28.97
2019-01-13T07:48:56.697Z,31.20
2019-01-13T07:51:25.195Z,28.67
2019-01-13T07:53:54.404Z,32.07
2019-01-13T07:56:23.360Z,31.10
2019-01-13T07:58:52.493Z,30.13
2019-01-13T08:01:21.784Z,30.43
2019-01-13T08:03:51.251Z,32.90
2019-01-13T08:06:20.719Z,26.47
2019-01-13T08:08:50.032Z,33.60
2019-01-13T08:11:19.476Z,35.43
2019-01-13T08:13:48.592Z,29.97
2019-01-13T08:16:17.463Z,38.83
2019-01-13T08:18:46.758Z,40.43
2019-01-13T08:21:15.849Z,37.87
2019-01-13T08:23:44.758Z,38.10
2019-01-13T08:26:13.856Z,41.20
2019-01-13T08:28:42.760Z,37.63
2019-01-13T08:31:11.792Z,38.07
2019-01-13T08:33:40.731Z,35.13
2019-01-13T08:36:10.033Z,40.50
2019-01-13T08:38:38.908Z,42.10
2019-01-13T08:41:08.157Z,41.30
2019-01-13T08:43:37.098Z,35.50
2019-01-13T08:46:05.934Z,38.67
2019-01-13T08:48:34.882Z,38.17
2019-01-13T08:51:03.865Z,43.43
2019-01-13T08:53:33.053Z,35.83
2019-01-13T08:56:01.911Z,38.50
2019-01-13T08:58:31.876Z,31.07
2019-01-13T09:01:00.899Z,30.50
2019-01-13T09:03:30.441Z,31.23
2019-01-13T09:05:59.716Z,35.20
2019-01-13T09:08:28.674Z,33.60
2019-01-13T09:10:57.844Z,35.73
2019-01-13T09:13:27.319Z,35.83
2019-01-13T09:15:56.255Z,32.90
2019-01-13T09:18:25.124Z,31.47
2019-01-13T09:20:53.950Z,29.93
2019-01-13T09:23:23.046Z,28.90
2019-01-13T09:25:53.232Z,28.57
2019-01-13T09:28:22.318Z,24.93
2019-01-13T09:30:51.475Z,24.23
2019-01-13T09:33:20.398Z,25.10
2019-01-13T09:35:49.364Z,24.43
2019-01-13T09:38:19.241Z,24.27
2019-01-13T09:40:48.100Z,23.37
2019-01-13T09:43:17.081Z,24.43
2019-01-13T09:45:45.950Z,26.67
2019-01-13T09:48:15.356Z,21.17
2019-01-13T09:50:44.217Z,23.60
2019-01-13T09:53:13.232Z,20.93
2019-01-13T09:55:42.624Z,20.87
2019-01-13T09:58:11.780Z,20.13
2019-01-13T10:00:40.671Z,18.33
2019-01-13T10:03:10.591Z,18.77
2019-01-13T10:05:39.823Z,16.23
2019-01-13T10:08:09.199Z,16.97
2019-01-13T10:10:38.168Z,16.50
2019-01-13T10:13:07.195Z,14.00
2019-01-13T10:15:36.398Z,13.87
2019-01-13T10:18:05.647Z,14.37
2019-01-13T10:20:36.240Z,12.80
2019-01-13T10:23:05.426Z,13.77
2019-01-13T10:25:34.314Z,10.57
2019-01-13T10:28:03.698Z,12.53
2019-01-13T10:30:33.259Z,10.23
2019-01-13T10:33:02.547Z,9.67
2019-01-13T10:35:31.481Z,6.90
2019-01-13T10:38:01.074Z,9.30
2019-01-13T10:40:31.378Z,6.17
2019-01-13T10:43:00.695Z,6.37
2019-01-13T10:45:30.292Z,9.07
2019-01-13T10:47:59.519Z,7.73
2019-01-13T10:50:30.234Z,5.33
2019-01-13T10:53:04.332Z,3.90
2019-01-13T10:55:33.212Z,3.50
2019-01-13T10:58:02.242Z,2.93
2019-01-13T11:00:33.367Z,4.13
2019-01-13T11:03:02.823Z,2.33
2019-01-13T11:05:32.078Z,2.60
2019-01-13T11:08:01.164Z,2.17
2019-01-13T11:10:30.135Z,1.87
2019-01-13T11:12:59.097Z,1.80
2019-01-13T11:15:28.033Z,1.07
2019-01-13T11:17:57.271Z,1.87
2019-01-13T11:20:44.400Z,2.70
2019-01-13T11:23:13.763Z,1.40
2019-01-13T11:25:42.559Z,3.27
2019-01-13T11:28:11.756Z,1.13
2019-01-13T11:30:40.658Z,2.30
2019-01-13T11:33:09.992Z,1.00
2019-01-13T11:35:39.678Z,1.23
2019-01-13T11:38:09.752Z,3.87
2019-01-13T11:40:38.639Z,75.30
2019-01-13T11:43:07.614Z,1.20
2019-01-13T11:45:36.814Z,1.53
2019-01-13T11:48:06.129Z,2.00
2019-01-13T11:50:35.015Z,1.97
2019-01-13T11:53:04.205Z,2.03
2019-01-13T11:55:33.049Z,1.37
2019-01-13T11:58:01.862Z,2.67
2019-01-13T12:00:36.694Z,2.13
2019-01-13T12:03:06.928Z,1.10
2019-01-13T12:05:37.294Z,1.57
2019-01-13T12:08:06.414Z,1.43
2019-01-13T12:10:35.358Z,1.47
2019-01-13T12:13:04.963Z,1.10
2019-01-13T12:15:33.842Z,1.10
2019-01-13T12:18:03.035Z,1.40
2019-01-13T12:20:31.980Z,1.20
2019-01-13T12:23:00.911Z,1.63
2019-01-13T12:25:29.864Z,1.43
2019-01-13T12:27:58.863Z,1.50
2019-01-13T12:30:30.235Z,1.93
2019-01-13T12:32:59.958Z,1.90
2019-01-13T12:35:28.908Z,1.63
2019-01-13T12:37:58.163Z,2.83
2019-01-13T12:40:28.219Z,2.40
2019-01-13T12:42:57.250Z,2.63
2019-01-13T12:45:26.723Z,2.57
2019-01-13T12:47:55.668Z,2.50
2019-01-13T12:50:29.572Z,2.10
2019-01-13T12:52:59.346Z,3.47
2019-01-13T12:55:28.844Z,2.67
2019-01-13T12:57:57.775Z,2.60
2019-01-13T13:00:26.840Z,1.60
2019-01-13T13:03:00.725Z,2.03
2019-01-13T13:05:29.731Z,2.47
2019-01-13T13:11:44.624Z,3.50
2019-01-13T13:14:24.562Z,1.53
2019-01-13T13:16:53.874Z,3.10
2019-01-13T13:19:23.126Z,1.90
2019-01-13T13:21:51.949Z,1.93
2019-01-13T13:24:21.073Z,2.03
2019-01-13T13:26:50.255Z,2.87
2019-01-13T13:29:19.155Z,2.63
2019-01-13T13:31:48.377Z,3.07
2019-01-13T13:34:24.829Z,9.67
2019-01-13T13:36:53.942Z,2.27
2019-01-13T13:39:23.074Z,4.43
2019-01-13T13:41:51.885Z,2.97
2019-01-13T13:44:20.779Z,2.23
2019-01-13T13:46:50.224Z,2.90
2019-01-13T13:49:19.088Z,3.40
2019-01-13T13:51:48.557Z,5.47
2019-01-13T13:54:17.433Z,3.30
2019-01-13T13:56:46.322Z,3.40
2019-01-13T13:59:15.547Z,2.50
2019-01-13T14:01:44.732Z,2.50
2019-01-13T14:04:14.214Z,5.67
2019-01-13T14:06:43.036Z,2.90
2019-01-13T14:09:11.941Z,4.70
2019-01-13T14:11:41.078Z,3.60
2019-01-13T14:14:09.864Z,3.37
2019-01-13T14:16:39.071Z,5.73
2019-01-13T14:19:07.960Z,70.63
2019-01-13T14:21:37.280Z,9.87
2019-01-13T14:24:06.498Z,3.67
2019-01-13T14:26:35.687Z,5.17
2019-01-13T14:29:04.663Z,4.63
2019-01-13T14:31:33.525Z,6.80
2019-01-13T14:34:02.432Z,5.40
2019-01-13T14:36:31.270Z,7.20
2019-01-13T14:39:00.096Z,6.07
2019-01-13T14:41:29.230Z,5.33
2019-01-13T14:43:58.105Z,5.47
2019-01-13T14:46:27.206Z,4.13
2019-01-13T14:48:56.762Z,4.03
2019-01-13T14:51:25.715Z,3.93
2019-01-13T14:53:54.566Z,5.57
2019-01-13T14:56:23.626Z,6.60
2019-01-13T14:58:52.488Z,5.83
2019-01-13T15:01:21.386Z,5.73
2019-01-13T15:03:50.244Z,6.03
2019-01-13T15:06:19.493Z,7.90
2019-01-13T15:08:48.343Z,7.50
2019-01-13T15:11:17.391Z,7.63
2019-01-13T15:13:46.230Z,8.50
2019-01-13T15:16:15.395Z,9.77
2019-01-13T15:18:44.330Z,8.87
2019-01-13T15:21:13.376Z,9.13
2019-01-13T15:23:42.199Z,8.00
2019-01-13T15:26:11.363Z,9.43
2019-01-13T15:28:40.296Z,9.87
2019-01-13T15:31:09.493Z,9.23
2019-01-13T15:33:38.392Z,8.57
2019-01-13T15:36:07.301Z,8.07
2019-01-13T15:38:36.720Z,5.50
2019-01-13T15:41:05.828Z,6.87
2019-01-13T15:43:35.043Z,4.90
2019-01-13T15:46:04.027Z,5.10
2019-01-13T15:48:32.916Z,4.27
2019-01-13T15:51:01.754Z,8.93
2019-01-13T15:53:31.023Z,6.40
2019-01-13T15:56:00.144Z,4.97
2019-01-13T15:58:28.991Z,5.00
2019-01-13T16:00:57.868Z,5.03
2019-01-13T16:03:27.007Z,4.87
2019-01-13T16:05:56.263Z,5.70
2019-01-13T16:08:25.570Z,6.13
2019-01-13T16:10:55.144Z,5.00
2019-01-13T16:13:24.371Z,5.13
2019-01-13T16:15:53.249Z,7.07
2019-01-13T16:18:22.471Z,4.17
2019-01-13T16:20:51.444Z,4.30
2019-01-13T16:23:20.352Z,3.43
2019-01-13T16:25:49.627Z,6.20
2019-01-13T16:28:18.715Z,3.40
2019-01-13T16:30:47.891Z,4.13
2019-01-13T16:33:16.712Z,3.93
2019-01-13T16:35:45.913Z,3.00
2019-01-13T16:38:14.811Z,2.60
2019-01-13T16:40:43.664Z,4.10
2019-01-13T16:43:13.199Z,3.10
2019-01-13T16:45:42.498Z,2.50
2019-01-13T16:48:11.824Z,2.33
2019-01-13T16:50:40.887Z,2.40
2019-01-13T16:53:09.711Z,2.60
2019-01-13T16:55:38.727Z,2.43
2019-01-13T16:58:10.519Z,2.10
2019-01-13T17:00:39.812Z,2.53
2019-01-13T17:03:08.961Z,2.23
2019-01-13T17:05:38.051Z,2.30
2019-01-13T17:08:08.429Z,1.73
2019-01-13T17:10:38.060Z,2.53
2019-01-13T17:13:07.038Z,2.67
2019-01-13T17:15:37.520Z,2.33
2019-01-13T17:18:07.895Z,2.73
2019-01-13T17:20:36.864Z,1.90
2019-01-13T17:23:06.162Z,1.40
2019-01-13T17:25:35.333Z,4.03
2019-01-13T17:28:04.463Z,2.67
2019-01-13T17:30:37.347Z,2.10
2019-01-13T17:33:06.717Z,2.23
2019-01-13T17:35:36.086Z,2.30
2019-01-13T17:38:05.306Z,1.93
2019-01-13T17:40:34.516Z,3.27
2019-01-13T17:43:03.591Z,2.20
2019-01-13T17:45:33.196Z,2.87
2019-01-13T17:48:02.535Z,3.00
2019-01-13T17:50:31.510Z,2.40
2019-01-13T17:53:00.502Z,2.90
2019-01-13T17:55:31.268Z,2.87
2019-01-13T17:58:00.701Z,2.17
2019-01-13T18:00:45.530Z,2.87
2019-01-13T18:03:17.186Z,2.60
2019-01-13T18:05:46.189Z,3.07
2019-01-13T18:08:15.140Z,2.80
2019-01-13T18:10:44.027Z,1.90
2019-01-13T18:13:13.140Z,1.63
2019-01-13T18:15:42.036Z,2.00
2019-01-13T18:18:11.013Z,1.70
2019-01-13T18:20:39.983Z,2.40
2019-01-13T18:23:09.430Z,2.13
2019-01-13T18:25:38.381Z,2.10
2019-01-13T18:28:07.571Z,2.03
2019-01-13T18:30:36.519Z,3.73
2019-01-13T18:33:06.020Z,2.63
2019-01-13T18:35:34.933Z,2.13
2019-01-13T18:38:04.375Z,3.50
2019-01-13T18:40:33.329Z,2.03
2019-01-13T18:43:02.668Z,2.53
2019-01-13T18:45:31.672Z,2.10
2019-01-13T18:48:00.796Z,2.03
2019-01-13T18:50:29.749Z,1.70
2019-01-13T18:53:05.242Z,1.93
2019-01-13T18:55:34.111Z,1.83
2019-01-13T18:58:03.046Z,1.80
2019-01-13T19:00:32.359Z,2.23
2019-01-13T19:03:01.415Z,2.03
2019-01-13T19:05:30.587Z,2.10
2019-01-13T19:07:59.541Z,2.10
2019-01-13T19:10:55.299Z,1.33
2019-01-13T19:13:47.463Z,2.20
2019-01-13T19:16:18.577Z,1.63
2019-01-13T19:18:47.853Z,1.87
2019-01-13T19:21:17.293Z,1.27
2019-01-13T19:23:46.308Z,1.83
2019-01-13T19:26:15.146Z,1.43
2019-01-13T19:28:44.354Z,1.20
2019-01-13T19:31:13.450Z,1.20
2019-01-13T19:33:42.567Z,1.50
2019-01-13T19:36:11.735Z,1.17
2019-01-13T19:38:40.768Z,1.00
2019-01-13T19:41:09.956Z,1.20
2019-01-13T19:43:38.915Z,1.10
2019-01-13T19:46:08.172Z,1.80
2019-01-13T19:48:37.390Z,1.07
2019-01-13T19:51:06.351Z,0.80
2019-01-13T19:53:35.643Z,1.30
2019-01-13T19:56:05.086Z,1.20
2019-01-13T19:58:34.037Z,0.90
2019-01-13T20:01:03.084Z,1.30
2019-01-13T20:03:32.005Z,0.90
2019-01-13T20:06:01.279Z,1.10
2019-01-13T20:08:30.732Z,0.83
2019-01-13T20:10:59.778Z,1.07
2019-01-13T20:13:28.726Z,1.10
2019-01-13T20:15:57.720Z,1.77
2019-01-13T20:18:26.758Z,1.50
2019-01-13T20:20:56.050Z,1.37
2019-01-13T20:23:25.111Z,1.43
2019-01-13T20:25:53.995Z,1.70
2019-01-13T20:28:22.922Z,2.73
2019-01-13T20:30:52.263Z,1.33
2019-01-13T20:33:21.137Z,2.10
2019-01-13T20:35:50.371Z,2.60
2019-01-13T20:38:19.472Z,2.43
2019-01-13T20:40:48.667Z,1.93
2019-01-13T20:43:17.850Z,1.80
2019-01-13T20:45:47.119Z,4.63
2019-01-13T20:48:16.238Z,1.90
2019-01-13T20:50:45.212Z,2.30
2019-01-13T20:53:14.242Z,2.27
2019-01-13T20:55:43.650Z,2.60
2019-01-13T20:58:12.835Z,1.73
2019-01-13T21:00:41.803Z,3.47
2019-01-13T21:03:10.854Z,2.40
2019-01-13T21:05:40.086Z,3.57
2019-01-13T21:08:09.045Z,2.33
2019-01-13T21:10:37.924Z,2.67
2019-01-13T21:13:07.271Z,3.60
2019-01-13T21:15:36.986Z,2.70
2019-01-13T21:18:05.914Z,3.27
2019-01-13T21:20:34.907Z,3.30
2019-01-13T21:23:04.242Z,3.63
2019-01-13T21:25:33.157Z,2.30
2019-01-13T21:28:02.963Z,2.50
2019-01-13T21:30:32.682Z,2.60
2019-01-13T21:33:02.042Z,2.53
2019-01-13T21:35:34.089Z,2.67
2019-01-13T21:38:02.267Z,3.23
2019-01-13T21:40:31.429Z,1.90
2019-01-13T21:43:00.195Z,2.23
2019-01-13T21:45:29.128Z,3.90
2019-01-13T21:47:58.414Z,1.90
2019-01-13T21:50:28.429Z,2.73
2019-01-13T21:52:57.572Z,2.27
2019-01-13T21:55:26.814Z,2.10
2019-01-13T21:57:56.135Z,1.57
2019-01-13T22:00:26.729Z,1.30
2019-01-13T22:02:56.283Z,2.20
2019-01-13T22:05:25.686Z,1.27
2019-01-13T22:07:54.890Z,2.33
2019-01-13T22:10:24.802Z,0.90
2019-01-13T22:12:54.515Z,1.00
2019-01-13T22:15:24.115Z,4.17
2019-01-13T22:17:53.044Z,1.30
2019-01-13T22:20:22.858Z,4.00
2019-01-13T22:22:52.282Z,0.70
2019-01-13T22:25:21.600Z,2.53
2019-01-13T22:27:50.786Z,2.60
2019-01-13T22:30:21.771Z,0.77
2019-01-13T22:32:50.669Z,2.93
2019-01-13T22:35:20.338Z,1.27
2019-01-13T22:37:55.626Z,1.37
2019-01-13T22:40:20.037Z,4.70
2019-01-13T22:42:49.136Z,1.93
2019-01-13T22:45:20.594Z,2.80
2019-01-13T22:47:49.870Z,1.47
2019-01-13T22:50:18.903Z,1.27
2019-01-13T22:52:47.860Z,5.57
2019-01-13T22:55:17.046Z,1.17
2019-01-13T22:57:45.930Z,3.43
2019-01-13T23:00:51.075Z,4.43
2019-01-13T23:03:20.533Z,1.03
2019-01-13T23:05:55.649Z,3.00
2019-01-13T23:08:20.970Z,1.20
2019-01-13T23:10:49.944Z,3.73
2019-01-13T23:13:19.566Z,0.93
2019-01-13T23:15:48.373Z,3.90
2019-01-13T23:18:17.482Z,3.30
2019-01-13T23:20:46.416Z,1.23
2019-01-13T23:23:15.377Z,2.73
2019-01-13T23:25:44.220Z,2.10
2019-01-13T23:28:13.127Z,0.97
2019-01-13T23:30:42.351Z,1.30
2019-01-13T23:33:11.518Z,2.20
2019-01-13T23:35:40.645Z,1.83
2019-01-13T23:38:09.858Z,2.43
2019-01-13T23:40:38.973Z,1.93
2019-01-13T23:43:08.127Z,1.53
2019-01-13T23:45:37.159Z,2.40
2019-01-13T23:48:06.072Z,2.40
2019-01-13T23:50:35.070Z,1.67
2019-01-13T23:53:04.085Z,4.43
2019-01-13T23:55:33.008Z,2.97
2019-01-13T23:58:01.934Z,2.30
